Time;durP1;ratioP1;P1;durP2;ratioP2;P2;SDS_P1;SDS_P2;PMS_P1;PMS_P2;Temp;Humidity;BMP_temperature;BMP_pressure;BME280_temperature;BME280_humidity;BME280_pressure;Samples;Min_cycle;Max_cycle;Signal;HPM_P1;HPM_P2
2023/08/02 00:02:37;;;;;;;4.20;3.65;;;;;;;16.32;100.00;99994.28;10297962;28;20141;-67
2023/08/02 00:07:38;;;;;;;10.07;5.00;;;;;;;16.22;100.00;99980.53;10297393;28;20073;-68
2023/08/02 00:12:38;;;;;;;10.38;5.65;;;;;;;16.17;100.00;99983.19;10280973;28;20046;-68
2023/08/02 00:17:39;;;;;;;15.60;5.38;;;;;;;16.10;100.00;99994.34;10280605;28;20466;-71
2023/08/02 00:22:39;;;;;;;10.35;4.43;;;;;;;16.14;100.00;99991.91;10296591;28;20046;-67
2023/08/02 00:27:40;;;;;;;10.57;5.15;;;;;;;16.23;100.00;99990.38;10279932;28;20037;-67
2023/08/02 00:32:46;;;;;;;11.80;4.40;;;;;;;16.42;100.00;99969.81;10279517;28;20030;-67
2023/08/02 00:37:47;;;;;;;8.98;4.90;;;;;;;16.58;100.00;99967.22;10296588;28;20153;-67
2023/08/02 00:42:47;;;;;;;6.25;3.85;;;;;;;16.69;100.00;99963.50;10296641;28;20112;-67
2023/08/02 00:47:48;;;;;;;10.73;5.28;;;;;;;16.80;100.00;99973.44;10279807;28;20039;-68
2023/08/02 00:52:50;;;;;;;18.60;5.60;;;;;;;16.81;100.00;99961.41;10296424;28;20458;-67
2023/08/02 00:57:51;;;;;;;9.55;4.53;;;;;;;16.85;100.00;99951.63;10278443;28;20426;-67
2023/08/02 01:02:51;;;;;;;10.82;3.67;;;;;;;16.89;100.00;99944.53;10279332;28;20102;-68
2023/08/02 01:07:57;;;;;;;8.35;4.85;;;;;;;16.84;100.00;99940.94;10293827;28;20420;-65
2023/08/02 01:12:57;;;;;;;6.43;3.55;;;;;;;16.76;100.00;99931.31;10294217;28;20117;-68
2023/08/02 01:17:57;;;;;;;7.35;3.72;;;;;;;16.57;100.00;99921.84;10293929;28;20049;-67
2023/08/02 01:22:58;;;;;;;8.82;5.22;;;;;;;16.54;100.00;99933.28;10295057;28;20156;-67
2023/08/02 01:28:04;;;;;;;10.73;4.53;;;;;;;16.54;100.00;99914.97;10294198;28;20035;-67
2023/08/02 01:33:05;;;;;;;7.97;5.07;;;;;;;16.59;100.00;99909.56;10294499;28;20109;-67
2023/08/02 01:38:06;;;;;;;12.48;5.03;;;;;;;16.57;100.00;99895.31;10296039;28;20051;-67
2023/08/02 01:43:06;;;;;;;12.20;5.07;;;;;;;16.56;100.00;99888.22;10293615;28;20097;-67
2023/08/02 01:48:06;;;;;;;7.18;4.13;;;;;;;16.45;100.00;99865.44;10294439;28;20470;-68
2023/08/02 01:53:07;;;;;;;14.65;4.68;;;;;;;16.37;100.00;99862.34;10294486;28;20106;-67
2023/08/02 01:58:07;;;;;;;8.45;4.80;;;;;;;16.30;100.00;99846.19;10294075;28;20109;-67
2023/08/02 02:03:08;;;;;;;7.05;4.47;;;;;;;16.26;100.00;99832.22;10292589;28;20039;-67
2023/08/02 02:08:08;;;;;;;7.68;3.83;;;;;;;16.19;100.00;99814.44;10293028;28;20050;-67
2023/08/02 02:13:08;;;;;;;8.18;3.78;;;;;;;16.15;100.00;99807.84;10292561;28;20045;-67
2023/08/02 02:18:09;;;;;;;9.13;5.38;;;;;;;16.14;100.00;99795.25;10290826;28;20470;-67
2023/08/02 02:23:09;;;;;;;12.23;4.45;;;;;;;16.10;100.00;99785.94;10292370;28;20150;-67
2023/08/02 02:28:11;;;;;;;18.15;4.40;;;;;;;16.04;100.00;99766.78;10292506;28;20099;-67
2023/08/02 02:33:12;;;;;;;10.85;4.25;;;;;;;15.96;100.00;99770.00;10292874;28;20039;-67
2023/08/02 02:38:12;;;;;;;14.93;5.22;;;;;;;15.91;100.00;99761.75;10298878;28;20487;-67
2023/08/02 02:43:13;;;;;;;11.68;5.32;;;;;;;15.93;100.00;99767.78;10296573;28;20042;-67
2023/08/02 02:48:13;;;;;;;9.27;4.55;;;;;;;15.89;100.00;99763.09;10277530;28;20058;-67
2023/08/02 02:53:14;;;;;;;11.88;4.90;;;;;;;15.96;100.00;99752.81;10274153;28;20448;-67
2023/08/02 02:58:14;;;;;;;14.90;4.63;;;;;;;15.96;100.00;99723.59;10292030;28;20462;-67
2023/08/02 03:03:14;;;;;;;11.27;4.15;;;;;;;16.04;100.00;99705.88;10291422;28;20035;-67
2023/08/02 03:08:15;;;;;;;12.63;4.97;;;;;;;16.02;100.00;99680.78;10292449;28;20039;-67
2023/08/02 03:13:15;;;;;;;12.48;4.90;;;;;;;16.01;100.00;99679.09;10274066;28;20403;-67
2023/08/02 03:18:16;;;;;;;6.10;4.47;;;;;;;16.03;100.00;99679.66;10291748;28;20039;-67
2023/08/02 03:23:16;;;;;;;8.52;5.15;;;;;;;16.07;100.00;99663.59;10290930;28;20494;-67
2023/08/02 03:28:16;;;;;;;7.40;4.47;;;;;;;16.10;100.00;99660.31;10292760;28;20034;-67
2023/08/02 03:33:17;;;;;;;8.40;4.53;;;;;;;16.10;100.00;99643.94;10281935;28;20132;-67
2023/08/02 03:38:17;;;;;;;10.68;5.18;;;;;;;16.15;100.00;99635.78;10264871;28;20139;-67
2023/08/02 03:43:18;;;;;;;9.95;4.68;;;;;;;16.18;100.00;99630.59;10299709;28;20398;-68
2023/08/02 03:48:18;;;;;;;11.60;4.47;;;;;;;16.09;100.00;99615.00;10281290;28;20031;-66
2023/08/02 03:53:18;;;;;;;17.55;5.85;;;;;;;15.84;100.00;99604.75;10281159;28;20155;-67
2023/08/02 03:58:20;;;;;;;16.20;6.72;;;;;;;15.76;100.00;99593.25;10299067;28;20098;-67
2023/08/02 04:03:20;;;;;;;5.75;5.15;;;;;;;15.76;100.00;99581.47;10297530;28;20455;-68
2023/08/02 04:08:21;;;;;;;10.43;6.65;;;;;;;15.66;100.00;99571.28;10298136;28;20058;-67
2023/08/02 04:13:21;;;;;;;13.50;7.13;;;;;;;15.56;100.00;99560.31;10281623;28;20522;-68
2023/08/02 04:18:21;;;;;;;8.10;5.75;;;;;;;15.49;100.00;99544.19;10281069;28;20039;-67
2023/08/02 04:23:22;;;;;;;6.63;4.80;;;;;;;15.42;100.00;99535.41;10264363;28;20497;-67
2023/08/02 04:28:22;;;;;;;6.47;4.63;;;;;;;15.42;100.00;99523.69;10281169;28;20100;-69
2023/08/02 04:33:23;;;;;;;5.22;3.88;;;;;;;15.33;100.00;99509.72;10298304;28;20051;-68
2023/08/02 04:38:23;;;;;;;9.18;6.00;;;;;;;15.33;100.00;99491.44;10297057;28;20125;-68
2023/08/02 04:43:24;;;;;;;18.50;6.55;;;;;;;15.40;100.00;99471.28;10278468;28;20051;-68
2023/08/02 04:48:24;;;;;;;9.95;6.50;;;;;;;15.41;100.00;99464.75;10296773;28;20073;-67
2023/08/02 04:53:24;;;;;;;12.55;8.55;;;;;;;15.39;100.00;99445.09;10279385;28;20038;-67
2023/08/02 04:58:25;;;;;;;7.10;6.35;;;;;;;15.36;100.00;99430.09;10295978;28;20038;-67
2023/08/02 05:03:25;;;;;;;11.52;6.22;;;;;;;15.35;100.00;99409.38;10296621;28;20038;-67
2023/08/02 05:08:29;;;;;;;7.80;7.10;;;;;;;15.32;100.00;99386.16;10296902;28;20030;-67
2023/08/02 05:13:29;;;;;;;9.55;7.55;;;;;;;15.32;100.00;99377.97;10296660;28;20074;-67
2023/08/02 05:18:30;;;;;;;5.55;4.75;;;;;;;15.28;100.00;99368.69;10296951;28;20443;-66
2023/08/02 05:23:30;;;;;;;10.20;5.65;;;;;;;15.29;100.00;99366.78;10295478;28;20042;-65
2023/08/02 05:28:30;;;;;;;13.15;5.22;;;;;;;15.27;100.00;99361.56;10277644;28;20462;-64
2023/08/02 05:33:31;;;;;;;6.28;5.32;;;;;;;15.28;100.00;99349.59;10293328;28;20466;-64
2023/08/02 05:38:34;;;;;;;10.63;5.80;;;;;;;15.28;100.00;99335.13;10294416;28;20503;-65
2023/08/02 05:43:36;;;;;;;6.43;4.97;;;;;;;15.24;100.00;99326.66;10295051;28;20082;-64
2023/08/02 05:48:36;;;;;;;8.48;5.50;;;;;;;15.31;100.00;99323.69;10262270;28;20098;-64
2023/08/02 05:53:36;;;;;;;9.18;5.03;;;;;;;15.33;100.00;99296.97;10293884;28;20554;-65
2023/08/02 05:58:37;;;;;;;6.05;4.15;;;;;;;15.31;100.00;99293.69;10294247;28;20047;-65
2023/08/02 06:03:37;;;;;;;4.90;4.50;;;;;;;15.34;100.00;99283.06;10293976;28;20038;-66
2023/08/02 06:08:38;;;;;;;7.10;4.60;;;;;;;15.39;100.00;99267.81;10294715;28;20456;-66
2023/08/02 06:13:38;;;;;;;8.02;4.57;;;;;;;15.37;100.00;99248.16;10293658;28;20125;-66
2023/08/02 06:18:38;;;;;;;4.43;3.97;;;;;;;15.32;100.00;99221.72;10276495;28;20038;-66
2023/08/02 06:23:39;;;;;;;7.63;3.28;;;;;;;15.37;100.00;99209.97;10293080;28;20038;-67
2023/08/02 06:28:39;;;;;;;3.47;2.78;;;;;;;15.47;100.00;99193.63;10276358;28;20423;-68
2023/08/02 06:33:40;;;;;;;12.55;3.83;;;;;;;15.50;100.00;99177.50;10275003;28;20475;-67
2023/08/02 06:38:40;;;;;;;3.85;3.53;;;;;;;15.59;100.00;99173.16;10293449;28;20058;-68
2023/08/02 06:43:41;;;;;;;2.92;2.72;;;;;;;15.66;100.00;99174.78;10291934;28;20491;-67
2023/08/02 06:48:41;;;;;;;2.60;2.42;;;;;;;15.61;100.00;99156.53;10292304;28;20031;-66
2023/08/02 06:53:42;;;;;;;3.83;2.38;;;;;;;15.64;100.00;99127.88;10292472;28;20453;-68
2023/08/02 06:58:42;;;;;;;4.10;2.53;;;;;;;15.78;100.00;99120.78;10275631;28;20057;-68
2023/08/02 07:03:43;;;;;;;5.28;2.15;;;;;;;15.80;100.00;99113.16;10296664;28;20034;-66
2023/08/02 07:08:43;;;;;;;1.65;1.55;;;;;;;15.82;100.00;99089.13;10304201;28;20050;-66
2023/08/02 07:13:44;;;;;;;1.48;1.40;;;;;;;15.86;100.00;99076.56;10304390;28;20053;-68
2023/08/02 07:18:45;;;;;;;1.63;1.52;;;;;;;15.90;100.00;99064.00;10306937;28;20145;-67
2023/08/02 07:23:45;;;;;;;1.80;1.60;;;;;;;15.96;100.00;99051.16;10304621;28;20407;-67
2023/08/02 07:28:45;;;;;;;4.90;1.52;;;;;;;15.94;100.00;99045.16;10303977;28;20038;-67
2023/08/02 07:33:46;;;;;;;1.48;1.38;;;;;;;15.89;100.00;99042.41;10305516;28;20050;-67
2023/08/02 07:38:47;;;;;;;2.25;1.10;;;;;;;15.89;100.00;99032.34;10288294;28;20145;-67
2023/08/02 07:43:47;;;;;;;1.40;1.30;;;;;;;16.02;100.00;99030.94;10290178;28;20411;-67
2023/08/02 07:48:51;;;;;;;1.73;1.33;;;;;;;16.00;100.00;99012.09;10290668;28;20101;-66
2023/08/02 07:53:51;;;;;;;1.00;1.00;;;;;;;16.00;100.00;99011.28;10289732;28;20090;-69
2023/08/02 07:58:52;;;;;;;1.10;1.10;;;;;;;16.05;100.00;99019.44;10287931;28;20470;-68
2023/08/02 08:03:52;;;;;;;1.80;1.70;;;;;;;16.13;100.00;99007.94;10304863;28;20062;-66
2023/08/02 08:08:53;;;;;;;1.40;1.30;;;;;;;16.19;100.00;98998.63;10286944;28;20464;-66
2023/08/02 08:13:53;;;;;;;2.35;2.08;;;;;;;16.39;100.00;98986.75;10303137;28;20035;-67
2023/08/02 08:18:53;;;;;;;4.45;1.50;;;;;;;16.72;100.00;98981.63;10297718;28;20463;-65
2023/08/02 08:23:54;;;;;;;4.20;2.60;;;;;;;17.16;100.00;98958.84;10298410;28;20035;-66
2023/08/02 08:28:54;;;;;;;1.63;1.45;;;;;;;17.66;100.00;98943.00;10280183;28;20031;-66
2023/08/02 08:33:55;;;;;;;1.98;1.88;;;;;;;18.44;100.00;98936.22;10264081;28;20042;-67
2023/08/02 08:38:56;;;;;;;2.05;1.95;;;;;;;18.11;100.00;98933.41;10263197;28;20502;-67
2023/08/02 08:43:56;;;;;;;7.40;2.38;;;;;;;18.07;100.00;98924.16;10296330;28;20035;-68
2023/08/02 08:48:58;;;;;;;1.90;1.80;;;;;;;18.02;100.00;98935.16;10278280;28;20479;-67
2023/08/02 08:54:02;;;;;;;9.57;1.90;;;;;;;18.10;100.00;98925.50;10262738;28;20030;-68
2023/08/02 08:59:03;;;;;;;4.63;2.30;;;;;;;18.10;100.00;98930.97;10278784;28;20035;-67
2023/08/02 09:04:03;;;;;;;3.45;2.30;;;;;;;18.25;100.00;98919.78;10295728;28;20039;-66
2023/08/02 09:09:04;;;;;;;2.65;2.55;;;;;;;18.60;100.00;98914.84;10295240;28;20066;-67
2023/08/02 09:14:10;;;;;;;4.45;2.63;;;;;;;18.88;100.00;98902.06;10296810;28;20042;-66
2023/08/02 09:19:43;;;;;;;5.10;2.90;;;;;;;19.28;100.00;98889.53;10278927;28;20035;-68
2023/08/02 09:24:44;;;;;;;1.50;1.40;;;;;;;19.67;100.00;98907.47;10283814;28;20042;-67
2023/08/02 09:29:45;;;;;;;2.83;2.00;;;;;;;19.55;100.00;98901.63;10294427;28;20034;-68
2023/08/02 09:34:46;;;;;;;1.75;1.65;;;;;;;19.53;100.00;98914.88;10294172;28;20443;-67
2023/08/02 09:39:48;;;;;;;4.63;2.58;;;;;;;19.70;100.00;98914.28;10292669;28;20054;-68
2023/08/02 09:44:53;;;;;;;10.15;3.05;;;;;;;19.33;100.00;98918.81;10293430;28;20467;-66
2023/08/02 09:50:09;;;;;;;14.80;4.05;;;;;;;20.39;100.00;98901.19;10293392;28;20059;-68
2023/08/02 09:55:09;;;;;;;4.70;3.08;;;;;;;21.27;100.00;98930.09;10292534;28;20057;-67
2023/08/02 10:00:10;;;;;;;5.47;2.47;;;;;;;20.54;100.00;98908.28;10295651;28;20046;-68
2023/08/02 10:05:12;;;;;;;7.50;3.20;;;;;;;21.16;100.00;98884.72;10293555;28;20037;-67
2023/08/02 10:10:18;;;;;;;11.85;4.40;;;;;;;21.94;100.00;98884.97;10293659;28;20121;-68
2023/08/02 10:15:19;;;;;;;3.53;2.10;;;;;;;23.15;100.00;98881.34;10280323;28;20030;-67
2023/08/02 10:20:19;;;;;;;4.28;2.92;;;;;;;22.23;100.00;98885.19;10279121;28;20133;-68
2023/08/02 10:25:20;;;;;;;6.82;2.83;;;;;;;22.33;100.00;98883.25;10293332;28;20050;-67
2023/08/02 10:30:20;;;;;;;7.88;2.72;;;;;;;22.43;100.00;98869.94;10259374;28;20037;-67
2023/08/02 10:35:55;;;;;;;6.68;2.22;;;;;;;23.49;100.00;98863.00;10291734;28;20039;-66
2023/08/02 10:41:03;;;;;;;7.47;1.33;;;;;;;24.22;100.00;98871.81;10274259;28;20049;-66
2023/08/02 10:46:27;;;;;;;6.95;2.00;;;;;;;24.48;100.00;98854.22;10276051;28;20039;-68
2023/08/02 10:51:28;;;;;;;5.72;2.30;;;;;;;24.21;100.00;98859.13;10292542;28;20038;-69
2023/08/02 10:56:28;;;;;;;4.28;2.05;;;;;;;23.52;100.00;98857.63;10291980;28;20122;-69
2023/08/02 11:01:29;;;;;;;14.25;3.58;;;;;;;22.98;100.00;98858.19;10274080;28;20122;-68
2023/08/02 11:06:29;;;;;;;5.50;3.65;;;;;;;23.07;100.00;98847.09;10274367;28;20034;-69
2023/08/02 11:11:31;;;;;;;11.85;2.60;;;;;;;24.23;100.00;98850.50;10291695;28;20483;-70
2023/08/02 11:16:38;;;;;;;6.90;1.88;;;;;;;23.88;100.00;98846.03;10274495;28;20035;-69
2023/08/02 11:21:38;;;;;;;7.10;2.40;;;;;;;24.08;100.00;98840.84;10291470;28;20038;-71
2023/08/02 11:26:39;;;;;;;8.10;2.28;;;;;;;24.89;100.00;98849.69;10291303;28;20450;-69
2023/08/02 11:31:39;;;;;;;5.15;2.70;;;;;;;24.76;100.00;98855.22;10292213;28;20458;-69
2023/08/02 11:36:40;;;;;;;4.28;1.88;;;;;;;25.46;100.00;98827.53;10273818;28;20079;-69
2023/08/02 11:41:40;;;;;;;3.47;2.13;;;;;;;25.99;100.00;98830.34;10273539;28;20030;-70
2023/08/02 11:46:40;;;;;;;2.38;1.38;;;;;;;26.05;100.00;98830.91;10289952;28;20495;-69
2023/08/02 11:51:41;;;;;;;9.15;3.17;;;;;;;26.29;100.00;98819.75;10295894;28;20475;-70
2023/08/02 11:56:41;;;;;;;4.35;1.85;;;;;;;25.52;100.00;98836.38;10297212;28;20039;-69
2023/08/02 12:01:42;;;;;;;2.17;1.98;;;;;;;26.65;100.00;98816.00;10280847;28;20134;-69
2023/08/02 12:06:49;;;;;;;7.63;1.50;;;;;;;26.06;100.00;98821.41;10297889;28;20489;-69
2023/08/02 12:11:54;;;;;;;2.05;1.92;;;;;;;26.43;97.74;98819.31;10298524;28;20133;-69
2023/08/02 12:16:54;;;;;;;1.92;1.63;;;;;;;26.06;93.47;98840.84;10298201;28;20038;-69
2023/08/02 12:21:58;;;;;;;4.97;2.90;;;;;;;25.14;99.38;98836.72;10297086;28;20121;-70
2023/08/02 12:27:14;;;;;;;1.85;1.65;;;;;;;25.53;100.00;98838.03;10297230;28;20035;-70
2023/08/02 12:32:25;;;;;;;3.78;1.85;;;;;;;25.08;100.00;98843.63;10280190;28;20031;-70
2023/08/02 12:37:25;;;;;;;2.90;2.40;;;;;;;23.77;99.33;98846.75;10280137;28;20470;-69
2023/08/02 12:42:26;;;;;;;11.68;4.07;;;;;;;23.37;100.00;98855.41;10296905;28;20046;-70
2023/08/02 12:47:26;;;;;;;11.10;2.78;;;;;;;24.70;88.06;98862.13;10280751;28;20065;-70
2023/08/02 12:52:26;;;;;;;3.45;3.05;;;;;;;25.11;87.11;98860.38;10298849;28;20388;-69
2023/08/02 12:57:27;;;;;;;6.45;2.75;;;;;;;25.07;88.61;98864.97;10279167;28;20070;-69
2023/08/02 13:02:27;;;;;;;10.90;2.22;;;;;;;25.22;81.62;98863.53;10278629;28;20045;-69
2023/08/02 13:07:28;;;;;;;7.07;2.58;;;;;;;25.66;72.37;98870.13;10262523;28;20043;-69
2023/08/02 13:12:31;;;;;;;5.85;2.75;;;;;;;25.40;71.80;98876.00;10296248;28;20049;-69
2023/08/02 13:17:34;;;;;;;6.70;2.67;;;;;;;25.56;69.62;98869.75;10279044;28;20482;-70
2023/08/02 13:22:35;;;;;;;3.28;2.60;;;;;;;25.41;76.91;98879.59;10294501;28;20077;-69
2023/08/02 13:27:35;;;;;;;4.53;2.75;;;;;;;25.20;73.11;98868.59;10279294;28;20042;-68
2023/08/02 13:32:35;;;;;;;7.97;2.80;;;;;;;24.51;77.08;98876.47;10277621;28;20559;-70
2023/08/02 13:37:38;;;;;;;2.58;1.70;;;;;;;23.43;77.84;98865.13;10295131;28;20061;-70
2023/08/02 13:42:38;;;;;;;14.30;3.67;;;;;;;23.94;83.57;98874.28;10294987;28;20479;-69
2023/08/02 13:47:38;;;;;;;8.70;2.50;;;;;;;23.02;92.61;98872.13;10292751;28;20090;-70
2023/08/02 13:52:39;;;;;;;7.65;3.42;;;;;;;22.77;100.00;98884.00;10277066;28;20443;-70
2023/08/02 13:57:39;;;;;;;10.02;3.80;;;;;;;23.01;98.94;98880.75;10277284;28;20382;-69
2023/08/02 14:02:40;;;;;;;5.47;3.03;;;;;;;22.16;98.68;98873.03;10293910;28;20379;-70
2023/08/02 14:07:40;;;;;;;7.00;2.33;;;;;;;20.55;100.00;98884.34;10276092;28;20038;-70
2023/08/02 14:12:41;;;;;;;7.80;3.10;;;;;;;20.13;100.00;98876.25;10293482;28;20066;-70
2023/08/02 14:17:41;;;;;;;16.45;3.95;;;;;;;21.25;100.00;98872.63;10275952;28;20035;-69
2023/08/02 14:22:42;;;;;;;11.95;4.70;;;;;;;21.18;100.00;98866.75;10276281;28;20035;-70
2023/08/02 14:27:42;;;;;;;17.42;3.75;;;;;;;20.54;100.00;98860.72;10293098;28;20043;-69
2023/08/02 14:32:43;;;;;;;12.45;4.68;;;;;;;20.80;100.00;98875.44;10292441;28;20122;-69
2023/08/02 14:37:43;;;;;;;21.05;4.38;;;;;;;21.03;100.00;98873.50;10292298;28;20102;-70
2023/08/02 14:42:46;;;;;;;7.10;3.60;;;;;;;21.02;100.00;98873.78;10292172;28;20038;-69
2023/08/02 14:47:46;;;;;;;8.77;3.22;;;;;;;21.03;100.00;98880.94;10293029;28;20046;-70
2023/08/02 14:52:46;;;;;;;5.57;3.38;;;;;;;20.78;100.00;98896.16;10291438;28;20042;-70
2023/08/02 14:57:47;;;;;;;29.00;6.47;;;;;;;20.21;100.00;98892.00;10293057;28;20475;-70
2023/08/02 15:02:47;;;;;;;7.65;3.13;;;;;;;19.86;100.00;98893.59;10297532;28;20061;-71
2023/08/02 15:07:48;;;;;;;16.95;3.40;;;;;;;19.57;100.00;98895.84;10281836;28;20122;-69
2023/08/02 15:12:48;;;;;;;16.45;3.88;;;;;;;19.62;100.00;98887.50;10251370;28;20043;-71
2023/08/02 15:17:49;;;;;;;9.25;3.35;;;;;;;19.66;100.00;98885.81;10279695;28;20030;-70
2023/08/02 15:22:49;;;;;;;13.48;4.97;;;;;;;19.88;100.00;98893.31;10298594;28;20045;-70
2023/08/02 15:27:49;;;;;;;13.02;4.93;;;;;;;20.09;100.00;98885.41;10290354;28;20105;-69
2023/08/02 15:32:50;;;;;;;10.65;4.18;;;;;;;20.34;100.00;98886.75;10304351;28;20047;-70
2023/08/02 15:37:50;;;;;;;6.32;3.10;;;;;;;20.30;100.00;98877.50;10282561;28;20462;-71
2023/08/02 15:42:51;;;;;;;11.85;3.38;;;;;;;20.26;100.00;98882.81;10299614;28;20122;-70
2023/08/02 15:47:51;;;;;;;16.08;3.58;;;;;;;20.00;100.00;98899.06;10283389;28;20117;-70
2023/08/02 15:52:52;;;;;;;17.35;5.00;;;;;;;19.93;100.00;98884.94;10300166;28;20034;-71
2023/08/02 15:57:52;;;;;;;7.97;3.58;;;;;;;20.02;100.00;98879.53;10299077;28;20050;-70
2023/08/02 16:02:52;;;;;;;18.73;4.10;;;;;;;19.82;100.00;98886.31;10299690;28;20443;-71
2023/08/02 16:07:53;;;;;;;11.00;4.57;;;;;;;19.77;100.00;98872.66;10282559;28;20039;-68
2023/08/02 16:12:54;;;;;;;7.28;3.65;;;;;;;19.85;100.00;98882.94;10299742;28;20042;-69
2023/08/02 16:17:55;;;;;;;10.18;3.80;;;;;;;19.71;100.00;98874.69;10280708;28;20038;-69
2023/08/02 16:22:55;;;;;;;17.17;3.88;;;;;;;19.61;100.00;98863.91;10280818;28;20440;-70
2023/08/02 16:27:56;;;;;;;15.73;4.47;;;;;;;19.51;100.00;98853.97;10280570;28;20390;-69
2023/08/02 16:32:56;;;;;;;11.15;2.92;;;;;;;19.48;100.00;98858.13;10301183;28;20055;-71
2023/08/02 16:37:56;;;;;;;9.38;3.45;;;;;;;18.90;100.00;98872.44;10299095;28;20103;-69
2023/08/02 16:42:57;;;;;;;18.90;4.82;;;;;;;17.82;100.00;98886.16;10280447;28;20047;-66
2023/08/02 16:47:57;;;;;;;13.90;3.50;;;;;;;17.24;100.00;98889.03;10281452;28;20038;-65
2023/08/02 16:52:57;;;;;;;3.63;3.20;;;;;;;16.85;100.00;98888.06;10297370;28;20516;-67
2023/08/02 16:57:59;;;;;;;8.15;2.47;;;;;;;16.77;100.00;98871.47;10279402;28;20034;-67
2023/08/02 17:02:59;;;;;;;10.48;4.28;;;;;;;16.81;100.00;98856.13;10297256;28;20418;-67
2023/08/02 17:08:00;;;;;;;11.15;4.30;;;;;;;16.78;100.00;98857.50;10296338;28;20229;-67
2023/08/02 17:13:00;;;;;;;5.32;1.70;;;;;;;16.98;100.00;98844.75;10263034;28;20031;-67
2023/08/02 17:18:00;;;;;;;15.45;3.25;;;;;;;17.09;100.00;98838.06;10294964;28;20125;-67
2023/08/02 17:23:01;;;;;;;8.48;2.42;;;;;;;17.33;100.00;98835.31;10296076;28;20066;-66
2023/08/02 17:28:01;;;;;;;9.35;2.75;;;;;;;17.53;100.00;98820.56;10295545;28;20453;-67
2023/08/02 17:33:02;;;;;;;2.47;2.28;;;;;;;17.37;100.00;98815.28;10295117;28;20047;-68
2023/08/02 17:38:03;;;;;;;4.00;2.17;;;;;;;17.26;100.00;98819.25;10277778;28;20046;-67
2023/08/02 17:43:04;;;;;;;1.50;1.27;;;;;;;17.16;100.00;98816.63;10295593;28;20034;-68
2023/08/02 17:48:09;;;;;;;4.68;1.77;;;;;;;17.04;100.00;98829.88;10293893;28;20038;-65
2023/08/02 17:53:10;;;;;;;13.17;3.50;;;;;;;16.81;100.00;98826.84;10298449;28;20039;-65
2023/08/02 17:58:10;;;;;;;7.82;2.83;;;;;;;16.67;100.00;98825.88;10280110;28;20049;-67
2023/08/02 18:03:11;;;;;;;7.60;2.65;;;;;;;16.46;100.00;98823.34;10294883;28;20076;-68
2023/08/02 18:08:12;;;;;;;4.75;3.05;;;;;;;16.44;100.00;98820.09;10294643;28;20035;-68
2023/08/02 18:13:12;;;;;;;10.85;2.97;;;;;;;16.45;100.00;98818.16;10261014;28;20031;-67
2023/08/02 18:18:12;;;;;;;10.63;3.53;;;;;;;16.44;100.00;98789.22;10292562;28;20030;-67
2023/08/02 18:23:13;;;;;;;8.88;2.40;;;;;;;16.41;100.00;98807.00;10293388;28;20114;-67
2023/08/02 18:28:13;;;;;;;11.30;3.13;;;;;;;16.31;100.00;98798.91;10276711;28;20066;-68
2023/08/02 18:33:14;;;;;;;8.75;1.95;;;;;;;16.34;100.00;98792.88;10276962;28;20078;-67
2023/08/02 18:38:14;;;;;;;4.25;2.78;;;;;;;16.33;100.00;98780.28;10275822;28;20050;-71
2023/08/02 18:43:22;;;;;;;10.10;1.80;;;;;;;16.30;100.00;98786.34;10292657;28;20054;-70
2023/08/02 18:48:24;;;;;;;1.60;1.55;;;;;;;16.31;100.00;98785.25;10276801;28;20054;-69
2023/08/02 18:53:24;;;;;;;4.88;2.20;;;;;;;16.32;100.00;98786.06;10259268;28;20058;-69
2023/08/02 18:58:25;;;;;;;2.00;1.90;;;;;;;16.33;100.00;98774.84;10292281;28;20438;-71
2023/08/02 19:03:26;;;;;;;3.20;2.45;;;;;;;16.39;100.00;98768.22;10258941;28;20163;-69
2023/08/02 19:08:26;;;;;;;3.70;2.03;;;;;;;16.41;100.00;98768.75;10292754;28;20431;-69
2023/08/02 19:13:27;;;;;;;2.78;2.08;;;;;;;16.38;100.00;98766.59;10274403;28;20039;-70
2023/08/02 19:18:27;;;;;;;10.48;2.40;;;;;;;16.43;100.00;98758.38;10291984;28;20438;-70
2023/08/02 19:23:27;;;;;;;2.60;2.40;;;;;;;16.41;100.00;98752.38;10273904;28;20125;-70
2023/08/02 19:28:28;;;;;;;3.13;2.70;;;;;;;16.36;100.00;98752.41;10291222;28;20055;-70
2023/08/02 19:33:28;;;;;;;4.32;1.80;;;;;;;16.40;100.00;98750.75;10273883;28;20118;-67
2023/08/02 19:38:29;;;;;;;1.90;1.80;;;;;;;16.45;100.00;98749.88;10274498;28;20059;-70
2023/08/02 19:43:29;;;;;;;4.22;2.38;;;;;;;16.43;100.00;98741.13;10291216;28;20049;-69
2023/08/02 19:48:37;;;;;;;4.93;2.45;;;;;;;16.48;100.00;98739.19;10291636;28;20144;-70
2023/08/02 19:53:37;;;;;;;3.50;2.33;;;;;;;16.41;100.00;98730.50;10295353;28;20110;-69
2023/08/02 19:58:38;;;;;;;10.73;2.88;;;;;;;16.50;100.00;98727.97;10292423;28;20039;-70
2023/08/02 20:03:39;;;;;;;3.42;2.25;;;;;;;16.51;100.00;98722.19;10283161;28;20038;-69
2023/08/02 20:08:39;;;;;;;4.70;2.10;;;;;;;16.56;100.00;98732.28;10291219;28;20034;-69
2023/08/02 20:13:41;;;;;;;5.47;2.58;;;;;;;16.58;100.00;98730.06;10297759;28;20026;-69
2023/08/02 20:18:41;;;;;;;6.57;2.95;;;;;;;16.61;100.00;98721.28;10283265;28;20415;-70
2023/08/02 20:23:42;;;;;;;2.40;2.17;;;;;;;16.64;100.00;98714.41;10301034;28;20039;-71
2023/08/02 20:28:44;;;;;;;8.90;2.88;;;;;;;16.67;100.00;98724.78;10300041;28;20038;-70
2023/08/02 20:33:45;;;;;;;5.45;2.35;;;;;;;16.69;100.00;98731.59;10301135;28;20077;-69
2023/08/02 20:38:53;;;;;;;2.22;2.03;;;;;;;16.48;100.00;98716.50;10281548;28;20050;-69
2023/08/02 20:43:54;;;;;;;4.28;2.00;;;;;;;16.21;100.00;98706.97;10280318;28;20473;-69
2023/08/02 20:48:55;;;;;;;5.43;2.25;;;;;;;16.19;100.00;98700.97;10281308;28;20046;-68
2023/08/02 20:53:56;;;;;;;3.35;2.80;;;;;;;16.16;100.00;98693.34;10297257;28;20033;-69
2023/08/02 20:58:56;;;;;;;3.78;2.63;;;;;;;16.14;100.00;98692.00;10298505;28;20066;-70
2023/08/02 21:03:57;;;;;;;12.20;2.67;;;;;;;16.18;100.00;98693.06;10296716;28;20524;-69
2023/08/02 21:08:58;;;;;;;8.00;2.80;;;;;;;16.17;100.00;98691.41;10264552;28;20073;-68
2023/08/02 21:13:58;;;;;;;4.78;3.10;;;;;;;16.16;100.00;98687.06;10296464;28;20069;-70
2023/08/02 21:18:59;;;;;;;6.18;2.25;;;;;;;16.16;100.00;98681.63;10278910;28;20042;-68
2023/08/02 21:23:59;;;;;;;23.70;2.67;;;;;;;16.10;100.00;98669.13;10278132;28;20062;-70
2023/08/02 21:28:59;;;;;;;8.82;2.63;;;;;;;15.99;100.00;98639.19;10278280;28;20035;-70
2023/08/02 21:34:00;;;;;;;3.65;2.13;;;;;;;15.99;100.00;98660.22;10278090;28;20031;-69
2023/08/02 21:39:00;;;;;;;4.88;1.98;;;;;;;16.02;100.00;98660.47;10295477;28;20053;-70
2023/08/02 21:44:01;;;;;;;1.55;1.35;;;;;;;16.09;100.00;98672.94;10277976;28;20120;-69
2023/08/02 21:49:01;;;;;;;2.97;2.22;;;;;;;16.10;100.00;98678.13;10277591;28;20383;-69
2023/08/02 21:54:01;;;;;;;2.95;2.00;;;;;;;16.13;100.00;98668.53;10277336;28;20039;-69
2023/08/02 21:59:02;;;;;;;5.68;2.25;;;;;;;16.09;100.00;98683.88;10278409;28;20027;-69
2023/08/02 22:04:04;;;;;;;1.15;1.13;;;;;;;16.10;100.00;98680.03;10294602;28;20446;-70
2023/08/02 22:09:04;;;;;;;1.23;1.05;;;;;;;16.12;100.00;98688.75;10260958;28;20030;-69
2023/08/02 22:14:04;;;;;;;3.20;2.88;;;;;;;16.12;100.00;98684.09;10262220;28;20039;-69
2023/08/02 22:19:05;;;;;;;1.98;1.60;;;;;;;16.10;100.00;98683.56;10276725;28;20046;-69
2023/08/02 22:24:05;;;;;;;1.65;1.45;;;;;;;16.18;100.00;98695.81;10277461;28;20077;-69
2023/08/02 22:29:06;;;;;;;1.38;1.20;;;;;;;16.17;100.00;98692.22;10276035;28;20027;-69
2023/08/02 22:34:06;;;;;;;2.97;1.20;;;;;;;16.21;100.00;98706.16;10277163;28;20478;-69
2023/08/02 22:39:06;;;;;;;1.17;1.05;;;;;;;16.21;100.00;98696.03;10276120;28;20055;-68
2023/08/02 22:44:07;;;;;;;3.03;2.03;;;;;;;16.22;100.00;98703.13;10292890;28;20089;-69
2023/08/02 22:49:07;;;;;;;3.33;1.77;;;;;;;16.32;100.00;98717.78;10260038;28;20130;-68
2023/08/02 22:54:08;;;;;;;3.58;2.67;;;;;;;16.25;100.00;98715.38;10293386;28;20406;-68
2023/08/02 22:59:08;;;;;;;9.75;3.40;;;;;;;16.20;100.00;98731.81;10276609;28;20038;-69